Mugla, Turkey
Current Conditions -  °F | °C
As of 8:50 AM on Friday 28 Nov 2014 (Local Time) from LTFE Reporting Station
Broken Clouds Broken Clouds  
Wind Chill: 10°   Ceiling: 10000
Heat Index: 10°   Visibility: 6mi
Dew Point:   Wind: 0mph
Humidity: 82%   Direction: NA
Pressure: 30.24"   Gusts: NA
Location:  37.22°N, 28.36°E
Report Text: LTFE 280650Z 00000KT 9999 FEW035 BKN100 10/07 Q1024 NOSIG
Loading
Personal Weather Stations






























Interactive Weather Map New forecast layout! Learn more

10-Day Weather Forecast

Advertisements
Track Severe Weather on mobile